sensor_id;sensor_type;location;lat;lon;timestamp;pressure;altitude;pressure_sealevel;temperature;humidity
17525;BME280;40431;52.198;9.902;2022-11-09T00:00:24;99867.75;;;14.42;72.83
17525;BME280;40431;52.198;9.902;2022-11-09T00:02:54;99869.97;;;14.48;72.68
17525;BME280;40431;52.198;9.902;2022-11-09T00:05:23;99866.38;;;14.48;72.91
17525;BME280;40431;52.198;9.902;2022-11-09T00:07:53;99871.69;;;14.49;72.70
17525;BME280;40431;52.198;9.902;2022-11-09T00:10:23;99864.03;;;14.43;73.08
17525;BME280;40431;52.198;9.902;2022-11-09T00:12:51;99863.06;;;14.44;73.04
17525;BME280;40431;52.198;9.902;2022-11-09T00:15:20;99866.63;;;14.45;73.17
17525;BME280;40431;52.198;9.902;2022-11-09T00:17:49;99856.47;;;14.47;72.74
17525;BME280;40431;52.198;9.902;2022-11-09T00:20:17;99861.03;;;14.46;72.71
17525;BME280;40431;52.198;9.902;2022-11-09T00:22:46;99861.31;;;14.43;72.68
17525;BME280;40431;52.198;9.902;2022-11-09T00:25:17;99858.59;;;14.43;72.45
17525;BME280;40431;52.198;9.902;2022-11-09T00:27:45;99855.72;;;14.45;72.53
17525;BME280;40431;52.198;9.902;2022-11-09T00:30:13;99859.88;;;14.39;72.47
17525;BME280;40431;52.198;9.902;2022-11-09T00:32:43;99857.13;;;14.39;72.48
17525;BME280;40431;52.198;9.902;2022-11-09T00:35:11;99857.13;;;14.39;72.31
17525;BME280;40431;52.198;9.902;2022-11-09T00:37:40;99853.66;;;14.37;72.31
17525;BME280;40431;52.198;9.902;2022-11-09T00:40:09;99855.88;;;14.43;72.14
17525;BME280;40431;52.198;9.902;2022-11-09T00:42:40;99858.72;;;14.42;72.11
17525;BME280;40431;52.198;9.902;2022-11-09T00:45:11;99855.13;;;14.41;72.11
17525;BME280;40431;52.198;9.902;2022-11-09T00:47:48;99856.47;;;14.47;71.96
17525;BME280;40431;52.198;9.902;2022-11-09T00:50:29;99855.59;;;14.46;71.85
17525;BME280;40431;52.198;9.902;2022-11-09T00:52:58;99851.00;;;14.47;71.98
17525;BME280;40431;52.198;9.902;2022-11-09T00:55:32;99847.69;;;14.43;71.99
17525;BME280;40431;52.198;9.902;2022-11-09T00:58:04;99851.84;;;14.47;71.89
17525;BME280;40431;52.198;9.902;2022-11-09T01:00:32;99840.94;;;14.47;72.13
17525;BME280;40431;52.198;9.902;2022-11-09T01:03:01;99841.69;;;14.49;71.81
17525;BME280;40431;52.198;9.902;2022-11-09T01:05:30;99835.34;;;14.49;71.75
17525;BME280;40431;52.198;9.902;2022-11-09T01:07:58;99847.81;;;14.42;72.12
17525;BME280;40431;52.198;9.902;2022-11-09T01:10:27;99849.66;;;14.41;72.22
17525;BME280;40431;52.198;9.902;2022-11-09T01:12:56;99851.81;;;14.38;72.49
17525;BME280;40431;52.198;9.902;2022-11-09T01:15:27;99851.81;;;14.38;72.50
17525;BME280;40431;52.198;9.902;2022-11-09T01:17:56;99854.13;;;14.42;72.15
17525;BME280;40431;52.198;9.902;2022-11-09T01:20:29;99839.03;;;14.38;72.71
17525;BME280;40431;52.198;9.902;2022-11-09T01:22:57;99851.69;;;14.39;72.74
17525;BME280;40431;52.198;9.902;2022-11-09T01:25:26;99841.47;;;14.41;72.66
17525;BME280;40431;52.198;9.902;2022-11-09T01:27:54;99838.03;;;14.39;72.71
17525;BME280;40431;52.198;9.902;2022-11-09T01:30:22;99835.31;;;14.39;72.83
17525;BME280;40431;52.198;9.902;2022-11-09T01:32:53;99843.97;;;14.44;72.71
17525;BME280;40431;52.198;9.902;2022-11-09T01:35:25;99850.41;;;14.43;72.74
17525;BME280;40431;52.198;9.902;2022-11-09T01:37:57;99845.69;;;14.45;72.77
17525;BME280;40431;52.198;9.902;2022-11-09T01:40:27;99837.50;;;14.45;72.60
17525;BME280;40431;52.198;9.902;2022-11-09T01:42:56;99850.25;;;14.45;72.79
17525;BME280;40431;52.198;9.902;2022-11-09T01:45:28;99845.69;;;14.45;72.84
17525;BME280;40431;52.198;9.902;2022-11-09T01:48:02;99840.25;;;14.45;73.06
17525;BME280;40431;52.198;9.902;2022-11-09T01:50:38;99840.25;;;14.45;72.93
17525;BME280;40431;52.198;9.902;2022-11-09T01:53:12;99846.13;;;14.50;72.83
17525;BME280;40431;52.198;9.902;2022-11-09T01:55:44;99848.28;;;14.47;72.94
17525;BME280;40431;52.198;9.902;2022-11-09T01:58:21;99844.81;;;14.45;72.99
17525;BME280;40431;52.198;9.902;2022-11-09T02:00:51;99845.41;;;14.48;73.23
17525;BME280;40431;52.198;9.902;2022-11-09T02:03:31;99850.41;;;14.43;73.35
17525;BME280;40431;52.198;9.902;2022-11-09T02:06:04;99849.94;;;14.38;73.68
17525;BME280;40431;52.198;9.902;2022-11-09T02:08:36;99848.09;;;14.39;73.65
17525;BME280;40431;52.198;9.902;2022-11-09T02:11:19;99842.50;;;14.40;73.69
17525;BME280;40431;52.198;9.902;2022-11-09T02:13:52;99850.69;;;14.40;73.69
17525;BME280;40431;52.198;9.902;2022-11-09T02:16:21;99847.97;;;14.40;73.58
17525;BME280;40431;52.198;9.902;2022-11-09T02:18:53;99847.22;;;14.38;73.97
17525;BME280;40431;52.198;9.902;2022-11-09T02:21:26;99841.63;;;14.40;73.95
17525;BME280;40431;52.198;9.902;2022-11-09T02:23:58;99847.22;;;14.38;73.98
17525;BME280;40431;52.198;9.902;2022-11-09T02:26:29;99838.91;;;14.40;74.24
17525;BME280;40431;52.198;9.902;2022-11-09T02:29:04;99840.31;;;14.34;74.41
17525;BME280;40431;52.198;9.902;2022-11-09T02:31:35;99830.41;;;14.33;74.66
17525;BME280;40431;52.198;9.902;2022-11-09T02:34:07;99833.13;;;14.33;74.69
17525;BME280;40431;52.198;9.902;2022-11-09T02:36:37;99832.97;;;14.34;74.82
17525;BME280;40431;52.198;9.902;2022-11-09T02:39:05;99826.16;;;14.40;74.69
17525;BME280;40431;52.198;9.902;2022-11-09T02:41:38;99839.31;;;14.35;74.92
17525;BME280;40431;52.198;9.902;2022-11-09T02:44:12;99833.88;;;14.35;75.36
17525;BME280;40431;52.198;9.902;2022-11-09T02:46:44;99824.56;;;14.38;75.41
17525;BME280;40431;52.198;9.902;2022-11-09T02:49:12;99818.81;;;14.41;75.59
17525;BME280;40431;52.198;9.902;2022-11-09T02:51:41;99818.66;;;14.42;75.54
17525;BME280;40431;52.198;9.902;2022-11-09T02:54:08;99824.41;;;14.39;75.62
17525;BME280;40431;52.198;9.902;2022-11-09T02:56:39;99828.13;;;14.38;75.72
17525;BME280;40431;52.198;9.902;2022-11-09T02:59:14;99829.25;;;14.35;75.86
17525;BME280;40431;52.198;9.902;2022-11-09T03:01:47;99817.50;;;14.35;75.83
17525;BME280;40431;52.198;9.902;2022-11-09T03:04:18;99810.91;;;14.38;75.76
17525;BME280;40431;52.198;9.902;2022-11-09T03:06:48;99806.31;;;14.38;75.77
17525;BME280;40431;52.198;9.902;2022-11-09T03:09:16;99822.97;;;14.35;75.73
17525;BME280;40431;52.198;9.902;2022-11-09T03:11:45;99807.59;;;14.34;75.68
17525;BME280;40431;52.198;9.902;2022-11-09T03:14:15;99813.50;;;14.39;75.35
17525;BME280;40431;52.198;9.902;2022-11-09T03:16:43;99815.94;;;14.42;75.18
17525;BME280;40431;52.198;9.902;2022-11-09T03:19:12;99808.50;;;14.44;75.19
17525;BME280;40431;52.198;9.902;2022-11-09T03:21:43;99817.13;;;14.49;74.85
17525;BME280;40431;52.198;9.902;2022-11-09T03:24:15;99818.59;;;14.53;74.81
17525;BME280;40431;52.198;9.902;2022-11-09T03:26:43;99805.81;;;14.54;74.63
17525;BME280;40431;52.198;9.902;2022-11-09T03:29:11;99803.22;;;14.52;74.68
17525;BME280;40431;52.198;9.902;2022-11-09T03:31:39;99784.84;;;14.55;74.65
17525;BME280;40431;52.198;9.902;2022-11-09T03:34:10;99797.47;;;14.56;74.93
17525;BME280;40431;52.198;9.902;2022-11-09T03:36:39;99810.25;;;14.55;74.83
17525;BME280;40431;52.198;9.902;2022-11-09T03:39:07;99805.66;;;14.56;75.10
17525;BME280;40431;52.198;9.902;2022-11-09T03:41:38;99810.66;;;14.50;75.42
17525;BME280;40431;52.198;9.902;2022-11-09T03:44:09;99812.41;;;14.51;75.33
17525;BME280;40431;52.198;9.902;2022-11-09T03:46:37;99811.69;;;14.49;75.43
17525;BME280;40431;52.198;9.902;2022-11-09T03:49:05;99814.66;;;14.46;75.56
17525;BME280;40431;52.198;9.902;2022-11-09T03:51:36;99814.94;;;14.43;75.75
17525;BME280;40431;52.198;9.902;2022-11-09T03:54:06;99831.03;;;14.46;75.52
17525;BME280;40431;52.198;9.902;2022-11-09T03:56:35;99822.13;;;14.44;76.04
17525;BME280;40431;52.198;9.902;2022-11-09T03:59:04;99825.00;;;14.43;75.82
17525;BME280;40431;52.198;9.902;2022-11-09T04:01:35;99831.31;;;14.43;76.07
17525;BME280;40431;52.198;9.902;2022-11-09T04:04:04;99834.47;;;14.39;76.24
17525;BME280;40431;52.198;9.902;2022-11-09T04:06:33;99830.47;;;14.43;76.39
17525;BME280;40431;52.198;9.902;2022-11-09T04:09:01;99817.50;;;14.35;76.87
17525;BME280;40431;52.198;9.902;2022-11-09T04:11:30;99810.59;;;14.31;77.06
17525;BME280;40431;52.198;9.902;2022-11-09T04:13:58;99812.03;;;14.35;77.25
17525;BME280;40431;52.198;9.902;2022-11-09T04:16:28;99810.16;;;14.35;77.50
17525;BME280;40431;52.198;9.902;2022-11-09T04:18:56;99813.31;;;14.31;77.99
17525;BME280;40431;52.198;9.902;2022-11-09T04:21:23;99819.91;;;14.28;78.27
17525;BME280;40431;52.198;9.902;2022-11-09T04:23:51;99813.56;;;14.28;78.62
17525;BME280;40431;52.198;9.902;2022-11-09T04:26:19;99818.91;;;14.29;78.74
17525;BME280;40431;52.198;9.902;2022-11-09T04:28:46;99807.41;;;14.26;79.04
17525;BME280;40431;52.198;9.902;2022-11-09T04:31:14;99817.84;;;14.20;79.70
17525;BME280;40431;52.198;9.902;2022-11-09T04:33:43;99815.13;;;14.20;79.78
17525;BME280;40431;52.198;9.902;2022-11-09T04:36:15;99818.84;;;14.19;80.26
17525;BME280;40431;52.198;9.902;2022-11-09T04:38:48;99822.56;;;14.18;80.53
17525;BME280;40431;52.198;9.902;2022-11-09T04:41:17;99826.03;;;14.20;80.62
17525;BME280;40431;52.198;9.902;2022-11-09T04:43:46;99824.31;;;14.19;80.88
17525;BME280;40431;52.198;9.902;2022-11-09T04:46:21;99824.44;;;14.18;80.98
17525;BME280;40431;52.198;9.902;2022-11-09T04:48:51;99827.78;;;14.22;81.26
17525;BME280;40431;52.198;9.902;2022-11-09T04:51:20;99827.44;;;14.15;81.71
17525;BME280;40431;52.198;9.902;2022-11-09T04:53:48;99825.09;;;14.10;82.02
17525;BME280;40431;52.198;9.902;2022-11-09T04:56:22;99826.84;;;14.11;81.93
17525;BME280;40431;52.198;9.902;2022-11-09T04:58:51;99830.56;;;14.10;82.01
17525;BME280;40431;52.198;9.902;2022-11-09T05:01:20;99826.53;;;14.05;82.64
17525;BME280;40431;52.198;9.902;2022-11-09T05:03:51;99826.91;;;14.00;82.98
17525;BME280;40431;52.198;9.902;2022-11-09T05:06:23;99824.31;;;13.98;83.33
17525;BME280;40431;52.198;9.902;2022-11-09T05:09:01;99841.28;;;14.02;83.34
17525;BME280;40431;52.198;9.902;2022-11-09T05:11:30;99832.63;;;13.97;83.95
17525;BME280;40431;52.198;9.902;2022-11-09T05:14:00;99832.78;;;13.95;84.46
17525;BME280;40431;52.198;9.902;2022-11-09T05:16:30;99839.34;;;13.93;84.76
17525;BME280;40431;52.198;9.902;2022-11-09T05:18:58;99837.41;;;13.83;85.31
17525;BME280;40431;52.198;9.902;2022-11-09T05:21:25;99838.16;;;13.85;85.70
17525;BME280;40431;52.198;9.902;2022-11-09T05:23:51;99849.06;;;13.85;85.84
17525;BME280;40431;52.198;9.902;2022-11-09T05:26:23;99843.84;;;13.82;85.90
17525;BME280;40431;52.198;9.902;2022-11-09T05:28:50;99839.28;;;13.83;86.14
17525;BME280;40431;52.198;9.902;2022-11-09T05:31:18;99831.25;;;13.81;86.17
17525;BME280;40431;52.198;9.902;2022-11-09T05:33:47;99841.41;;;13.79;86.54
17525;BME280;40431;52.198;9.902;2022-11-09T05:36:15;99842.66;;;13.75;86.83
17525;BME280;40431;52.198;9.902;2022-11-09T05:38:41;99845.53;;;13.74;87.10
17525;BME280;40431;52.198;9.902;2022-11-09T05:41:08;99846.66;;;13.71;87.39
17525;BME280;40431;52.198;9.902;2022-11-09T05:43:34;99850.09;;;13.73;87.14
17525;BME280;40431;52.198;9.902;2022-11-09T05:46:01;99848.41;;;13.72;87.27
17525;BME280;40431;52.198;9.902;2022-11-09T05:48:27;99844.91;;;13.70;87.31
17525;BME280;40431;52.198;9.902;2022-11-09T05:50:54;99848.28;;;13.62;87.66
17525;BME280;40431;52.198;9.902;2022-11-09T05:53:23;99851.44;;;13.58;88.00
17525;BME280;40431;52.198;9.902;2022-11-09T05:55:50;99854.00;;;13.59;88.00
17525;BME280;40431;52.198;9.902;2022-11-09T05:58:17;99858.56;;;13.59;88.35
17525;BME280;40431;52.198;9.902;2022-11-09T06:00:43;99864.91;;;13.59;88.66
17525;BME280;40431;52.198;9.902;2022-11-09T06:03:10;99869.75;;;13.56;88.89
17525;BME280;40431;52.198;9.902;2022-11-09T06:05:39;99866.16;;;13.55;88.91
17525;BME280;40431;52.198;9.902;2022-11-09T06:08:07;99874.34;;;13.55;89.12
17525;BME280;40431;52.198;9.902;2022-11-09T06:10:35;99874.69;;;13.62;89.25
17525;BME280;40431;52.198;9.902;2022-11-09T06:13:02;99874.34;;;13.55;89.46
17525;BME280;40431;52.198;9.902;2022-11-09T06:15:29;99890.53;;;13.57;89.41
17525;BME280;40431;52.198;9.902;2022-11-09T06:17:56;99877.44;;;13.50;89.63
17525;BME280;40431;52.198;9.902;2022-11-09T06:20:24;99893.78;;;13.50;89.95
17525;BME280;40431;52.198;9.902;2022-11-09T06:22:52;99880.28;;;13.49;90.20
17525;BME280;40431;52.198;9.902;2022-11-09T06:25:19;99892.78;;;13.51;90.09
17525;BME280;40431;52.198;9.902;2022-11-09T06:27:47;99893.78;;;13.50;90.30
17525;BME280;40431;52.198;9.902;2022-11-09T06:30:14;99882.03;;;13.50;90.55
17525;BME280;40431;52.198;9.902;2022-11-09T06:32:41;99885.13;;;13.45;90.69
17525;BME280;40431;52.198;9.902;2022-11-09T06:35:08;99877.22;;;13.42;90.89
17525;BME280;40431;52.198;9.902;2022-11-09T06:37:34;99884.66;;;13.40;91.34
17525;BME280;40431;52.198;9.902;2022-11-09T06:40:01;99888.88;;;13.44;90.97
17525;BME280;40431;52.198;9.902;2022-11-09T06:42:27;99894.41;;;13.43;91.22
17525;BME280;40431;52.198;9.902;2022-11-09T06:44:55;99891.09;;;13.39;91.45
17525;BME280;40431;52.198;9.902;2022-11-09T06:47:22;99891.81;;;13.41;91.34
17525;BME280;40431;52.198;9.902;2022-11-09T06:49:48;99899.41;;;13.38;91.29
17525;BME280;40431;52.198;9.902;2022-11-09T06:52:15;99890.84;;;13.42;91.39
17525;BME280;40431;52.198;9.902;2022-11-09T06:54:41;99893.56;;;13.42;91.50
17525;BME280;40431;52.198;9.902;2022-11-09T06:57:08;99904.94;;;13.47;91.60
17525;BME280;40431;52.198;9.902;2022-11-09T06:59:34;99909.53;;;13.47;91.80
17525;BME280;40431;52.198;9.902;2022-11-09T07:02:02;99914.09;;;13.46;91.63
17525;BME280;40431;52.198;9.902;2022-11-09T07:04:28;99920.66;;;13.44;92.05
17525;BME280;40431;52.198;9.902;2022-11-09T07:06:55;99917.81;;;13.45;92.34
17525;BME280;40431;52.198;9.902;2022-11-09T07:09:21;99918.81;;;13.44;92.41
17525;BME280;40431;52.198;9.902;2022-11-09T07:11:48;99921.00;;;13.50;92.03
17525;BME280;40431;52.198;9.902;2022-11-09T07:14:14;99926.22;;;13.53;91.97
17525;BME280;40431;52.198;9.902;2022-11-09T07:16:41;99933.28;;;13.56;92.01
17525;BME280;40431;52.198;9.902;2022-11-09T07:19:08;99939.31;;;13.60;92.07
17525;BME280;40431;52.198;9.902;2022-11-09T07:21:35;99938.31;;;13.61;92.00
17525;BME280;40431;52.198;9.902;2022-11-09T07:24:02;99940.28;;;13.59;92.46
17525;BME280;40431;52.198;9.902;2022-11-09T07:26:28;99930.63;;;13.66;92.34
17525;BME280;40431;52.198;9.902;2022-11-09T07:28:54;99929.66;;;13.67;91.98
17525;BME280;40431;52.198;9.902;2022-11-09T07:31:21;99920.34;;;13.69;91.83
17525;BME280;40431;52.198;9.902;2022-11-09T07:33:48;99926.38;;;13.73;91.84
17525;BME280;40431;52.198;9.902;2022-11-09T07:36:16;99923.41;;;13.76;92.04
17525;BME280;40431;52.198;9.902;2022-11-09T07:38:42;99925.25;;;13.76;92.01
17525;BME280;40431;52.198;9.902;2022-11-09T07:41:09;99938.25;;;13.83;91.52
17525;BME280;40431;52.198;9.902;2022-11-09T07:43:35;99923.34;;;13.88;91.71
17525;BME280;40431;52.198;9.902;2022-11-09T07:46:03;99933.75;;;13.94;91.75
17525;BME280;40431;52.198;9.902;2022-11-09T07:48:30;99936.94;;;13.99;91.68
17525;BME280;40431;52.198;9.902;2022-11-09T07:50:59;99938.34;;;14.14;90.90
17525;BME280;40431;52.198;9.902;2022-11-09T07:53:27;99940.03;;;14.27;90.05
17525;BME280;40431;52.198;9.902;2022-11-09T07:55:58;99933.44;;;14.29;89.89
17525;BME280;40431;52.198;9.902;2022-11-09T07:58:26;99946.88;;;14.42;89.33
17525;BME280;40431;52.198;9.902;2022-11-09T08:00:54;99933.22;;;14.42;88.59
17525;BME280;40431;52.198;9.902;2022-11-09T08:03:23;99930.97;;;14.47;88.37
17525;BME280;40431;52.198;9.902;2022-11-09T08:05:50;99926.38;;;14.48;88.08
17525;BME280;40431;52.198;9.902;2022-11-09T08:08:18;99931.72;;;14.49;88.25
17525;BME280;40431;52.198;9.902;2022-11-09T08:10:47;99945.06;;;14.52;88.25
17525;BME280;40431;52.198;9.902;2022-11-09T08:13:17;99943.09;;;14.55;88.19
17525;BME280;40431;52.198;9.902;2022-11-09T08:15:46;99942.34;;;14.52;87.87
17525;BME280;40431;52.198;9.902;2022-11-09T08:18:16;99940.59;;;14.51;88.65
17525;BME280;40431;52.198;9.902;2022-11-09T08:20:44;99938.63;;;14.53;88.45
17525;BME280;40431;52.198;9.902;2022-11-09T08:23:13;99931.91;;;14.58;88.33
17525;BME280;40431;52.198;9.902;2022-11-09T08:25:41;99944.06;;;14.53;88.27
17525;BME280;40431;52.198;9.902;2022-11-09T08:28:10;99948.94;;;14.50;88.45
17525;BME280;40431;52.198;9.902;2022-11-09T08:30:38;99941.59;;;14.50;89.07
17525;BME280;40431;52.198;9.902;2022-11-09T08:33:09;99938.88;;;14.50;88.81
17525;BME280;40431;52.198;9.902;2022-11-09T08:35:37;99944.31;;;14.50;89.01
17525;BME280;40431;52.198;9.902;2022-11-09T08:38:05;99941.59;;;14.50;89.06
17525;BME280;40431;52.198;9.902;2022-11-09T08:40:33;99955.22;;;14.50;88.95
17525;BME280;40431;52.198;9.902;2022-11-09T08:43:02;99947.06;;;14.50;89.24
17525;BME280;40431;52.198;9.902;2022-11-09T08:45:34;99956.25;;;14.49;89.50
17525;BME280;40431;52.198;9.902;2022-11-09T08:48:03;99967.41;;;14.46;90.73
17525;BME280;40431;52.198;9.902;2022-11-09T08:50:34;99963.97;;;14.44;92.99
17525;BME280;40431;52.198;9.902;2022-11-09T08:53:03;99972.00;;;14.46;96.29
17525;BME280;40431;52.198;9.902;2022-11-09T08:55:31;99969.94;;;14.38;97.78
17525;BME280;40431;52.198;9.902;2022-11-09T08:57:59;99977.09;;;14.29;99.16
17525;BME280;40431;52.198;9.902;2022-11-09T09:00:28;99975.00;;;14.22;100.00
17525;BME280;40431;52.198;9.902;2022-11-09T09:02:56;99981.50;;;14.09;100.00
17525;BME280;40431;52.198;9.902;2022-11-09T09:05:23;99982.38;;;14.10;100.00
17525;BME280;40431;52.198;9.902;2022-11-09T09:07:50;99991.19;;;14.02;100.00
17525;BME280;40431;52.198;9.902;2022-11-09T09:10:17;99988.00;;;13.97;100.00
17525;BME280;40431;52.198;9.902;2022-11-09T09:12:43;99995.19;;;13.86;100.00
17525;BME280;40431;52.198;9.902;2022-11-09T09:15:10;99986.94;;;13.77;100.00
17525;BME280;40431;52.198;9.902;2022-11-09T09:17:36;99980.88;;;13.73;100.00
17525;BME280;40431;52.198;9.902;2022-11-09T09:20:06;99980.44;;;13.57;100.00
17525;BME280;40431;52.198;9.902;2022-11-09T09:22:33;99983.44;;;13.42;100.00
17525;BME280;40431;52.198;9.902;2022-11-09T09:24:59;99984.91;;;13.46;100.00
17525;BME280;40431;52.198;9.902;2022-11-09T09:27:26;99978.69;;;13.33;100.00
17525;BME280;40431;52.198;9.902;2022-11-09T09:29:54;99986.75;;;13.34;100.00
17525;BME280;40431;52.198;9.902;2022-11-09T09:32:20;99990.44;;;13.33;100.00
17525;BME280;40431;52.198;9.902;2022-11-09T09:34:47;100006.69;;;13.24;100.00
17525;BME280;40431;52.198;9.902;2022-11-09T09:37:15;100010.63;;;13.08;100.00
17525;BME280;40431;52.198;9.902;2022-11-09T09:39:41;100001.09;;;13.02;100.00
17525;BME280;40431;52.198;9.902;2022-11-09T09:42:15;100007.66;;;13.00;100.00
17525;BME280;40431;52.198;9.902;2022-11-09T09:44:46;100001.34;;;12.88;100.00
17525;BME280;40431;52.198;9.902;2022-11-09T09:47:19;100014.84;;;12.90;100.00
17525;BME280;40431;52.198;9.902;2022-11-09T09:49:52;100001.22;;;12.78;100.00
17525;BME280;40431;52.198;9.902;2022-11-09T09:52:24;100001.22;;;12.78;100.00
17525;BME280;40431;52.198;9.902;2022-11-09T09:54:58;100011.59;;;12.73;100.00
17525;BME280;40431;52.198;9.902;2022-11-09T09:57:27;100013.47;;;12.73;100.00
17525;BME280;40431;52.198;9.902;2022-11-09T09:59:58;100022.34;;;12.75;100.00
17525;BME280;40431;52.198;9.902;2022-11-09T10:02:27;100025.19;;;12.73;100.00
17525;BME280;40431;52.198;9.902;2022-11-09T10:04:57;100024.94;;;12.76;100.00
17525;BME280;40431;52.198;9.902;2022-11-09T10:07:29;100020.50;;;12.75;100.00
17525;BME280;40431;52.198;9.902;2022-11-09T10:10:11;100005.03;;;12.76;100.00
17525;BME280;40431;52.198;9.902;2022-11-09T10:13:09;100011.72;;;12.72;100.00
17525;BME280;40431;52.198;9.902;2022-11-09T10:15:48;100018.91;;;12.73;100.00
17525;BME280;40431;52.198;9.902;2022-11-09T10:18:33;100018.28;;;12.80;100.00
17525;BME280;40431;52.198;9.902;2022-11-09T10:21:15;100008.16;;;12.82;100.00
17525;BME280;40431;52.198;9.902;2022-11-09T10:23:58;100020.75;;;12.83;100.00
17525;BME280;40431;52.198;9.902;2022-11-09T10:26:40;100022.59;;;12.83;100.00
17525;BME280;40431;52.198;9.902;2022-11-09T10:29:19;100016.91;;;12.75;100.00
17525;BME280;40431;52.198;9.902;2022-11-09T10:31:51;100022.22;;;12.76;100.00
17525;BME280;40431;52.198;9.902;2022-11-09T10:34:23;100006.28;;;12.72;100.00
17525;BME280;40431;52.198;9.902;2022-11-09T10:36:58;100010.34;;;12.77;100.00
17525;BME280;40431;52.198;9.902;2022-11-09T10:39:38;100015.81;;;12.77;100.00
17525;BME280;40431;52.198;9.902;2022-11-09T10:42:09;100010.34;;;12.77;100.00
17525;BME280;40431;52.198;9.902;2022-11-09T10:44:37;100003.19;;;12.76;100.00
17525;BME280;40431;52.198;9.902;2022-11-09T10:47:07;100019.41;;;12.78;100.00
17525;BME280;40431;52.198;9.902;2022-11-09T10:49:36;100009.72;;;12.74;100.00
17525;BME280;40431;52.198;9.902;2022-11-09T10:52:17;100011.25;;;12.78;100.00
17525;BME280;40431;52.198;9.902;2022-11-09T10:55:16;100006.53;;;12.80;100.00
17525;BME280;40431;52.198;9.902;2022-11-09T10:57:56;100005.41;;;12.82;100.00
17525;BME280;40431;52.198;9.902;2022-11-09T11:00:27;100009.41;;;12.90;100.00
17525;BME280;40431;52.198;9.902;2022-11-09T11:03:09;100010.16;;;13.03;100.00
17525;BME280;40431;52.198;9.902;2022-11-09T11:05:36;100004.19;;;13.09;100.00
17525;BME280;40431;52.198;9.902;2022-11-09T11:08:22;100010.91;;;13.16;100.00
17525;BME280;40431;52.198;9.902;2022-11-09T11:10:50;100017.97;;;13.19;100.00
17525;BME280;40431;52.198;9.902;2022-11-09T11:13:31;100003.59;;;13.28;100.00
17525;BME280;40431;52.198;9.902;2022-11-09T11:15:58;100005.22;;;13.31;100.00
17525;BME280;40431;52.198;9.902;2022-11-09T11:18:25;99999.75;;;13.31;100.00
17525;BME280;40431;52.198;9.902;2022-11-09T11:21:10;99999.63;;;13.32;100.00
17525;BME280;40431;52.198;9.902;2022-11-09T11:23:38;100001.25;;;13.35;100.00
17525;BME280;40431;52.198;9.902;2022-11-09T11:26:18;100003.34;;;13.43;100.00
17525;BME280;40431;52.198;9.902;2022-11-09T11:28:49;100002.13;;;13.47;100.00
17525;BME280;40431;52.198;9.902;2022-11-09T11:31:19;99995.91;;;13.56;100.00
17525;BME280;40431;52.198;9.902;2022-11-09T11:33:46;99993.06;;;13.58;100.00
17525;BME280;40431;52.198;9.902;2022-11-09T11:36:19;99986.59;;;13.59;100.00
17525;BME280;40431;52.198;9.902;2022-11-09T11:38:55;99985.03;;;13.56;100.00
17525;BME280;40431;52.198;9.902;2022-11-09T11:41:36;99992.72;;;13.51;100.00
17525;BME280;40431;52.198;9.902;2022-11-09T11:44:12;99986.38;;;13.50;100.00
17525;BME280;40431;52.198;9.902;2022-11-09T11:46:45;99997.13;;;13.52;100.00
17525;BME280;40431;52.198;9.902;2022-11-09T11:49:33;99994.31;;;13.42;100.00
17525;BME280;40431;52.198;9.902;2022-11-09T11:52:08;100009.41;;;13.35;100.00
17525;BME280;40431;52.198;9.902;2022-11-09T11:54:43;100009.19;;;13.38;100.00
17525;BME280;40431;52.198;9.902;2022-11-09T11:57:32;100011.38;;;13.33;100.00
17525;BME280;40431;52.198;9.902;2022-11-09T12:00:09;100024.75;;;13.25;100.00
17525;BME280;40431;52.198;9.902;2022-11-09T12:03:05;100018.69;;;13.21;100.00
17525;BME280;40431;52.198;9.902;2022-11-09T12:05:53;100006.56;;;13.14;100.00
17525;BME280;40431;52.198;9.902;2022-11-09T12:08:28;99993.31;;;13.09;100.00
17525;BME280;40431;52.198;9.902;2022-11-09T12:11:07;99993.31;;;13.09;100.00
17525;BME280;40431;52.198;9.902;2022-11-09T12:13:52;99998.75;;;13.09;100.00
17525;BME280;40431;52.198;9.902;2022-11-09T12:16:27;99995.06;;;13.10;100.00
17525;BME280;40431;52.198;9.902;2022-11-09T12:19:07;99989.59;;;13.10;100.00
17525;BME280;40431;52.198;9.902;2022-11-09T12:21:43;99990.59;;;13.09;100.00
17525;BME280;40431;52.198;9.902;2022-11-09T12:24:20;99989.09;;;13.05;100.00
17525;BME280;40431;52.198;9.902;2022-11-09T12:27:08;99996.03;;;13.09;100.00
17525;BME280;40431;52.198;9.902;2022-11-09T12:29:49;99990.09;;;13.04;100.00
17525;BME280;40431;52.198;9.902;2022-11-09T12:32:25;99996.41;;;13.05;100.00
17525;BME280;40431;52.198;9.902;2022-11-09T12:34:58;99994.44;;;13.07;100.00
17525;BME280;40431;52.198;9.902;2022-11-09T12:37:32;99987.66;;;13.12;100.00
17525;BME280;40431;52.198;9.902;2022-11-09T12:40:05;99995.28;;;13.18;100.00
17525;BME280;40431;52.198;9.902;2022-11-09T12:42:42;99993.91;;;13.24;100.00
17525;BME280;40431;52.198;9.902;2022-11-09T12:45:23;99996.41;;;13.27;100.00
17525;BME280;40431;52.198;9.902;2022-11-09T12:47:53;99996.78;;;13.34;100.00
17525;BME280;40431;52.198;9.902;2022-11-09T12:50:24;99996.78;;;13.34;100.00
17525;BME280;40431;52.198;9.902;2022-11-09T12:52:51;100008.19;;;13.39;100.00
17525;BME280;40431;52.198;9.902;2022-11-09T12:55:24;99998.91;;;13.42;100.00
17525;BME280;40431;52.198;9.902;2022-11-09T12:57:53;99997.03;;;13.42;100.00
17525;BME280;40431;52.198;9.902;2022-11-09T13:00:47;99996.69;;;13.47;100.00
17525;BME280;40431;52.198;9.902;2022-11-09T13:03:23;99999.28;;;13.48;100.00
17525;BME280;40431;52.198;9.902;2022-11-09T13:06:13;99999.28;;;13.48;100.00
17525;BME280;40431;52.198;9.902;2022-11-09T13:08:42;99997.03;;;13.53;100.00
17525;BME280;40431;52.198;9.902;2022-11-09T13:11:19;99994.06;;;13.57;100.00
17525;BME280;40431;52.198;9.902;2022-11-09T13:13:46;99994.53;;;13.62;100.00